» Metar & Tafor

01 September 2019
METAR
Pukul : 06.00 UTC
Isi :

METAR WAGI 190600Z 17007KT 3000 FU VV010 34/22 Q1009=


10 Juni 2019
TAFOR
Pukul : 06 - 18 UTC
Isi :

TAF WAGI 190500Z 1906/1918 13006KT 3000 FU VV008
BECMG 1908/1909 4000 FU SCT012
BECMG 1912/1913 6000 NSW=


Hal: << First | < Prev | 1 | Next > | Last >>